createdAt,value
2019-02-06T00:01:08.366Z,37.60
2019-02-06T00:06:13.231Z,33.13
2019-02-06T00:11:22.764Z,30.13
2019-02-06T00:16:27.045Z,26.07
2019-02-06T00:21:31.994Z,28.60
2019-02-06T00:26:36.663Z,31.20
2019-02-06T00:31:38.698Z,28.00
2019-02-06T00:36:40.884Z,27.93
2019-02-06T00:41:47.929Z,27.53
2019-02-06T00:46:50.361Z,29.67
2019-02-06T00:51:52.380Z,31.87
2019-02-06T00:56:54.563Z,30.53
2019-02-06T01:01:56.683Z,24.93
2019-02-06T01:06:58.731Z,25.93
2019-02-06T01:12:00.759Z,29.27
2019-02-06T01:17:07.999Z,26.43
2019-02-06T01:22:10.129Z,25.00
2019-02-06T01:27:12.153Z,26.37
2019-02-06T01:32:14.162Z,25.33
2019-02-06T01:37:16.184Z,23.80
2019-02-06T01:42:18.270Z,23.87
2019-02-06T01:47:20.583Z,26.60
2019-02-06T01:52:25.136Z,23.30
2019-02-06T01:57:27.474Z,22.77
2019-02-06T02:02:29.848Z,23.57
2019-02-06T02:07:31.850Z,23.17
2019-02-06T02:12:33.855Z,23.07
2019-02-06T02:17:35.850Z,25.63
2019-02-06T02:22:39.963Z,24.90
2019-02-06T02:27:41.998Z,24.40
2019-02-06T02:32:44.064Z,24.57
2019-02-06T02:37:46.148Z,24.80
2019-02-06T02:42:48.155Z,21.63
2019-02-06T02:47:50.171Z,22.27
2019-02-06T02:52:53.202Z,22.30
2019-02-06T02:57:55.273Z,21.27
2019-02-06T03:03:05.657Z,24.13
2019-02-06T03:08:07.687Z,23.83
2019-02-06T03:13:12.457Z,24.60
2019-02-06T03:18:15.221Z,20.83
2019-02-06T03:23:17.235Z,25.30
2019-02-06T03:28:19.575Z,27.00
2019-02-06T03:33:21.929Z,23.33
2019-02-06T03:38:26.256Z,22.80
2019-02-06T03:43:30.315Z,23.27
2019-02-06T03:48:32.528Z,24.43
2019-02-06T03:53:35.869Z,24.13
2019-02-06T03:58:37.877Z,23.50
2019-02-06T04:03:42.291Z,24.50
2019-02-06T04:08:46.417Z,27.70
2019-02-06T04:13:48.532Z,27.47
2019-02-06T04:18:50.567Z,27.00
2019-02-06T04:23:52.625Z,22.20
2019-02-06T04:28:54.646Z,23.87
2019-02-06T04:33:57.203Z,25.90
2019-02-06T04:38:59.263Z,27.37
2019-02-06T04:44:04.354Z,24.50
2019-02-06T04:49:06.412Z,25.17
2019-02-06T04:54:11.072Z,24.50
2019-02-06T04:59:13.617Z,27.17
2019-02-06T05:04:15.878Z,26.13
2019-02-06T05:09:17.929Z,29.83
2019-02-06T05:14:20.100Z,26.20
2019-02-06T05:19:24.413Z,30.93
2019-02-06T05:24:26.558Z,25.77
2019-02-06T05:29:28.545Z,25.93
2019-02-06T05:34:30.794Z,27.80
2019-02-06T05:39:33.218Z,25.83
2019-02-06T05:44:37.164Z,27.83
2019-02-06T05:49:39.172Z,28.73
2019-02-06T05:54:41.206Z,29.93
2019-02-06T05:59:48.204Z,29.60
2019-02-06T06:04:51.798Z,30.10
2019-02-06T06:09:56.939Z,29.83
2019-02-06T06:14:59.263Z,29.13
2019-02-06T06:20:01.859Z,28.60
2019-02-06T06:25:05.477Z,32.87
2019-02-06T06:30:09.712Z,36.13
2019-02-06T06:35:11.926Z,35.43
2019-02-06T06:40:16.565Z,37.70
2019-02-06T06:45:22.937Z,36.23
2019-02-06T06:50:24.952Z,36.60
2019-02-06T06:55:30.023Z,40.57
2019-02-06T07:00:32.380Z,38.17
2019-02-06T07:05:34.764Z,41.00
2019-02-06T07:10:37.372Z,37.53
2019-02-06T07:15:46.319Z,43.40
2019-02-06T07:20:48.347Z,44.60
2019-02-06T07:25:50.420Z,46.63
2019-02-06T07:30:52.747Z,44.37
2019-02-06T07:35:55.313Z,46.83
2019-02-06T07:41:03.220Z,54.10
2019-02-06T07:46:05.319Z,46.43
2019-02-06T07:51:07.335Z,51.10
2019-02-06T07:56:09.547Z,46.83
2019-02-06T08:01:11.749Z,54.67
2019-02-06T08:06:13.891Z,60.33
2019-02-06T08:11:15.939Z,54.37
2019-02-06T08:16:20.860Z,56.97
2019-02-06T08:21:24.433Z,59.83
2019-02-06T08:26:27.926Z,62.70
2019-02-06T08:31:29.976Z,62.67
2019-02-06T08:36:32.419Z,63.07
2019-02-06T08:41:34.815Z,58.53
2019-02-06T08:46:37.059Z,67.13
2019-02-06T08:51:39.086Z,60.97
2019-02-06T08:56:41.142Z,65.63
2019-02-06T09:01:43.370Z,70.23
2019-02-06T09:06:45.667Z,65.67
2019-02-06T09:11:47.809Z,62.87
2019-02-06T09:16:50.110Z,58.87
2019-02-06T09:21:52.378Z,66.70
2019-02-06T09:26:54.755Z,65.00
2019-02-06T09:31:59.350Z,77.83
2019-02-06T09:37:00.888Z,65.63
2019-02-06T09:42:05.709Z,61.33
2019-02-06T09:47:08.056Z,67.47
2019-02-06T09:52:10.085Z,62.53
2019-02-06T09:57:13.865Z,69.70
2019-02-06T10:02:16.015Z,69.07
2019-02-06T10:07:18.068Z,67.07
2019-02-06T10:12:20.099Z,76.47
2019-02-06T10:17:22.176Z,60.77
2019-02-06T10:22:24.315Z,61.63
2019-02-06T10:27:26.951Z,64.27
2019-02-06T10:32:29.032Z,52.13
2019-02-06T10:37:33.590Z,53.77
2019-02-06T10:42:37.678Z,60.17
2019-02-06T10:47:41.355Z,56.43
2019-02-06T10:52:43.436Z,59.97
2019-02-06T10:57:50.422Z,56.93
2019-02-06T11:02:52.667Z,57.47
2019-02-06T11:07:55.938Z,64.17
2019-02-06T11:12:58.376Z,51.10
2019-02-06T11:18:00.398Z,48.07
2019-02-06T11:23:02.755Z,54.17
2019-02-06T11:28:08.178Z,59.07
2019-02-06T11:33:10.270Z,55.33
2019-02-06T11:38:12.372Z,53.00
2019-02-06T11:43:14.780Z,48.37
2019-02-06T11:48:16.856Z,51.20
2019-02-06T11:53:27.011Z,48.93
2019-02-06T11:58:29.188Z,54.43
2019-02-06T12:03:33.092Z,50.73
2019-02-06T12:08:35.126Z,52.27
2019-02-06T12:13:37.313Z,51.10
2019-02-06T12:18:39.366Z,61.50
2019-02-06T12:23:47.693Z,59.40
2019-02-06T12:28:51.739Z,62.23
2019-02-06T12:33:53.776Z,62.60
2019-02-06T12:38:55.798Z,62.03
2019-02-06T12:43:58.178Z,52.70
2019-02-06T12:49:00.203Z,49.17
2019-02-06T12:54:05.123Z,45.90
2019-02-06T12:59:09.852Z,42.43
2019-02-06T13:04:11.882Z,39.70
2019-02-06T13:09:15.008Z,51.27
2019-02-06T13:14:17.386Z,45.10
2019-02-06T13:19:21.785Z,47.27
2019-02-06T13:24:24.328Z,47.13
2019-02-06T13:29:26.384Z,49.00
2019-02-06T13:34:33.603Z,46.37
2019-02-06T13:39:35.640Z,49.40
2019-02-06T13:44:41.604Z,53.73
2019-02-06T13:49:47.049Z,48.90
2019-02-06T13:54:49.508Z,54.77
2019-02-06T13:59:51.497Z,53.13
2019-02-06T14:04:55.617Z,51.03
2019-02-06T14:09:57.631Z,53.80
2019-02-06T14:15:01.580Z,53.80
2019-02-06T14:20:05.929Z,60.70
2019-02-06T14:26:22.199Z,62.00
2019-02-06T14:32:04.385Z,51.63
2019-02-06T14:37:43.247Z,46.20
2019-02-06T14:43:06.849Z,46.33
2019-02-06T14:48:20.872Z,44.73
2019-02-06T14:54:08.991Z,48.00
2019-02-06T14:59:55.040Z,42.83
2019-02-06T15:05:36.263Z,46.07
2019-02-06T15:11:00.373Z,40.73
2019-02-06T15:16:47.513Z,43.77
2019-02-06T15:22:26.005Z,52.83
2019-02-06T15:28:12.570Z,49.57
2019-02-06T15:33:47.383Z,50.07
2019-02-06T15:39:40.638Z,52.87
2019-02-06T15:45:14.595Z,57.60
2019-02-06T15:50:36.624Z,49.90
2019-02-06T15:56:15.395Z,58.27
2019-02-06T16:01:39.823Z,59.63
2019-02-06T16:07:02.874Z,65.73
2019-02-06T16:12:43.288Z,58.10
2019-02-06T16:18:30.640Z,59.13
2019-02-06T16:24:26.821Z,69.63
2019-02-06T16:30:19.975Z,71.43
2019-02-06T16:36:18.653Z,68.47
2019-02-06T16:41:37.107Z,62.07
2019-02-06T16:47:23.983Z,70.50
2019-02-06T16:53:13.910Z,63.60
2019-02-06T16:58:55.070Z,65.70
2019-02-06T17:04:27.176Z,62.57
2019-02-06T17:09:57.068Z,60.37
2019-02-06T17:15:33.256Z,57.47
2019-02-06T17:21:15.456Z,54.67
2019-02-06T17:26:59.400Z,53.27
2019-02-06T17:32:11.641Z,53.03
2019-02-06T17:37:36.872Z,51.47
2019-02-06T17:43:01.262Z,50.80
2019-02-06T17:48:32.833Z,63.83
2019-02-06T17:54:00.051Z,66.30
2019-02-06T17:59:04.349Z,75.87
2019-02-06T18:04:14.184Z,61.80
2019-02-06T18:09:17.396Z,71.37
2019-02-06T18:14:22.804Z,72.77
2019-02-06T18:19:35.381Z,70.93
2019-02-06T18:24:37.575Z,68.57
2019-02-06T18:29:41.653Z,71.83
2019-02-06T18:34:43.666Z,76.87
2019-02-06T18:39:45.646Z,68.37
2019-02-06T18:44:49.913Z,67.97
2019-02-06T18:49:51.945Z,68.37
2019-02-06T18:54:54.023Z,72.40
2019-02-06T18:59:58.346Z,86.70
2019-02-06T19:05:00.484Z,82.57
2019-02-06T19:10:05.040Z,78.73
2019-02-06T19:15:10.465Z,89.10
2019-02-06T19:20:12.902Z,76.97
2019-02-06T19:25:16.998Z,87.40
2019-02-06T19:30:27.904Z,99.50
2019-02-06T19:35:30.283Z,78.83
2019-02-06T19:40:37.373Z,76.30
2019-02-06T19:45:39.668Z,79.03
2019-02-06T19:50:46.209Z,88.27
2019-02-06T19:55:48.392Z,90.37
2019-02-06T20:00:50.495Z,85.17
2019-02-06T20:05:52.947Z,94.10
2019-02-06T20:10:55.310Z,81.73
2019-02-06T20:15:57.461Z,85.07
2019-02-06T20:20:59.780Z,93.43
2019-02-06T20:26:04.637Z,76.63
2019-02-06T20:31:06.636Z,82.67
2019-02-06T20:36:08.750Z,79.43
2019-02-06T20:41:10.808Z,78.87
2019-02-06T20:46:13.237Z,81.40
2019-02-06T20:51:15.263Z,70.03
2019-02-06T20:56:18.016Z,87.33
2019-02-06T21:01:23.421Z,83.33
2019-02-06T21:06:28.427Z,70.77
2019-02-06T21:11:30.437Z,83.93
2019-02-06T21:16:32.503Z,67.70
2019-02-06T21:21:34.607Z,71.87
2019-02-06T21:26:36.795Z,70.20
2019-02-06T21:31:41.776Z,87.63
2019-02-06T21:36:46.564Z,69.70
2019-02-06T21:41:48.639Z,78.40
2019-02-06T21:46:54.079Z,72.17
2019-02-06T21:51:59.702Z,85.90
2019-02-06T21:57:01.766Z,84.10
2019-02-06T22:02:03.790Z,81.77
2019-02-06T22:07:08.975Z,95.47
2019-02-06T22:12:10.999Z,88.77
2019-02-06T22:17:27.058Z,91.30
2019-02-06T22:22:29.398Z,94.40
2019-02-06T22:27:34.269Z,91.50
2019-02-06T22:32:38.875Z,101.07
2019-02-06T22:37:48.610Z,119.50
2019-02-06T22:42:54.547Z,119.33
2019-02-06T22:47:56.607Z,145.50
2019-02-06T22:52:58.723Z,116.20
2019-02-06T22:58:02.037Z,94.97
2019-02-06T23:03:04.374Z,110.07
2019-02-06T23:08:06.403Z,101.63
2019-02-06T23:13:08.634Z,95.00
2019-02-06T23:18:11.905Z,93.70
2019-02-06T23:23:14.149Z,83.00
2019-02-06T23:28:16.522Z,78.57
2019-02-06T23:33:21.481Z,68.93
2019-02-06T23:38:28.489Z,66.13
2019-02-06T23:43:32.628Z,66.63
2019-02-06T23:48:34.650Z,64.90
2019-02-06T23:53:36.689Z,66.10
2019-02-06T23:58:39.028Z,61.37
